createdAt,value
2022-09-17T00:00:01.584Z,10.2
2022-09-17T00:01:01.159Z,10.2
2022-09-17T00:02:01.802Z,10.2
2022-09-17T00:03:01.446Z,10.2
2022-09-17T00:04:00.965Z,10.2
2022-09-17T00:05:01.543Z,10.2
2022-09-17T00:06:01.117Z,10.2
2022-09-17T00:07:01.705Z,10.1
2022-09-17T00:08:01.292Z,10.2
2022-09-17T00:09:01.868Z,10.2
2022-09-17T00:10:01.461Z,10.1
2022-09-17T00:11:01.180Z,10.1
2022-09-17T00:12:01.631Z,10.1
2022-09-17T00:13:01.207Z,10.1
2022-09-17T00:14:01.852Z,10.1
2022-09-17T00:15:01.428Z,10.2
2022-09-17T00:16:01.029Z,10.2
2022-09-17T00:17:02.082Z,10.2
2022-09-17T00:18:01.258Z,10.2
2022-09-17T00:19:01.821Z,10.2
2022-09-17T00:20:01.394Z,10.2
2022-09-17T00:21:00.966Z,10.2
2022-09-17T00:22:01.555Z,10.2
2022-09-17T00:23:01.162Z,10.2
2022-09-17T00:24:01.755Z,10.2
2022-09-17T00:25:01.331Z,10.2
2022-09-17T00:26:01.908Z,10.2
2022-09-17T00:27:01.605Z,10.2
2022-09-17T00:28:01.139Z,10.2
2022-09-17T00:29:01.748Z,10.2
2022-09-17T00:30:01.327Z,10.2
2022-09-17T00:31:01.938Z,10.1
2022-09-17T00:32:01.526Z,10
2022-09-17T00:33:01.100Z,10
2022-09-17T00:34:01.693Z,10
2022-09-17T00:35:01.289Z,10
2022-09-17T00:36:01.853Z,9.9
2022-09-17T00:37:01.424Z,9.9
2022-09-17T00:38:00.999Z,9.9
2022-09-17T00:39:01.590Z,9.9
2022-09-17T00:40:01.226Z,9.9
2022-09-17T00:41:01.737Z,9.8
2022-09-17T00:42:01.311Z,9.9
2022-09-17T00:43:02.001Z,9.8
2022-09-17T00:44:01.592Z,9.8
2022-09-17T00:45:01.139Z,9.8
2022-09-17T00:46:01.708Z,9.8
2022-09-17T00:47:01.283Z,9.8
2022-09-17T00:48:01.870Z,9.9
2022-09-17T00:49:01.472Z,9.8
2022-09-17T00:50:01.047Z,9.9
2022-09-17T00:51:01.619Z,9.9
2022-09-17T00:52:01.241Z,9.8
2022-09-17T00:53:01.769Z,9.8
2022-09-17T00:54:01.358Z,9.9
2022-09-17T00:55:00.929Z,9.8
2022-09-17T00:56:01.523Z,9.9
2022-09-17T00:57:01.109Z,9.8
2022-09-17T00:58:01.682Z,9.8
2022-09-17T00:59:01.399Z,9.9
2022-09-17T01:00:01.825Z,9.8
2022-09-17T01:01:01.471Z,9.8
2022-09-17T01:02:00.991Z,9.8
2022-09-17T01:03:01.561Z,9.8
2022-09-17T01:04:01.154Z,9.8
2022-09-17T01:05:01.709Z,9.7
2022-09-17T01:06:01.304Z,9.7
2022-09-17T01:07:01.869Z,9.7
2022-09-17T01:08:01.442Z,9.8
2022-09-17T01:09:01.017Z,9.7
2022-09-17T01:10:01.595Z,9.7
2022-09-17T01:11:01.188Z,9.7
2022-09-17T01:12:01.774Z,9.6
2022-09-17T01:13:01.361Z,9.6
2022-09-17T01:14:00.929Z,9.6
2022-09-17T01:15:01.621Z,9.6
2022-09-17T01:16:01.195Z,9.5
2022-09-17T01:17:01.747Z,9.5
2022-09-17T01:18:01.319Z,9.5
2022-09-17T01:19:01.892Z,9.4
2022-09-17T01:20:01.465Z,9.4
2022-09-17T01:21:01.039Z,9.5
2022-09-17T01:22:01.627Z,9.4
2022-09-17T01:23:01.201Z,9.4
2022-09-17T01:24:01.775Z,9.3
2022-09-17T01:25:01.349Z,9.5
2022-09-17T01:26:00.922Z,9.4
2022-09-17T01:27:01.516Z,9.4
2022-09-17T01:28:01.095Z,9.4
2022-09-17T01:29:01.789Z,9.4
2022-09-17T01:30:01.315Z,9.4
2022-09-17T01:31:02.122Z,9.4
2022-09-17T01:32:01.802Z,9.3
2022-09-17T01:33:01.121Z,9.3
2022-09-17T01:34:01.696Z,9.3
2022-09-17T01:35:01.272Z,9.3
2022-09-17T01:36:01.848Z,9.3
2022-09-17T01:37:01.435Z,9.3
2022-09-17T01:38:01.012Z,9.3
2022-09-17T01:39:01.588Z,9.4
2022-09-17T01:40:01.257Z,9.3
2022-09-17T01:41:01.742Z,9.3
2022-09-17T01:42:01.344Z,9.3
2022-09-17T01:43:01.898Z,9.3
2022-09-17T01:44:01.563Z,9.4
2022-09-17T01:45:01.131Z,9.4
2022-09-17T01:46:01.705Z,9.4
2022-09-17T01:47:01.418Z,9.4
2022-09-17T01:48:01.873Z,9.4
2022-09-17T01:49:01.445Z,9.4
2022-09-17T01:50:01.020Z,9.4
2022-09-17T01:51:01.592Z,9.4
2022-09-17T01:52:01.163Z,9.4
2022-09-17T01:53:01.802Z,9.4
2022-09-17T01:54:01.427Z,9.5
2022-09-17T01:55:00.949Z,9.5
2022-09-17T01:56:01.525Z,9.5
2022-09-17T01:57:01.097Z,9.5
2022-09-17T01:58:01.684Z,9.5
2022-09-17T01:59:01.257Z,9.5
2022-09-17T02:00:01.860Z,9.5
2022-09-17T02:01:01.509Z,9.5
2022-09-17T02:02:01.124Z,9.4
2022-09-17T02:03:01.749Z,9.5
2022-09-17T02:04:01.276Z,9.5
2022-09-17T02:05:01.835Z,9.5
2022-09-17T02:06:01.412Z,9.5
2022-09-17T02:07:00.985Z,9.5
2022-09-17T02:08:01.576Z,9.4
2022-09-17T02:09:01.164Z,9.4
2022-09-17T02:10:01.724Z,9.4
2022-09-17T02:11:01.297Z,9.4
2022-09-17T02:12:01.870Z,9.5
2022-09-17T02:13:01.460Z,9.6
2022-09-17T02:14:01.031Z,9.5
2022-09-17T02:15:01.609Z,9.6
2022-09-17T02:16:01.290Z,9.6
2022-09-17T02:17:01.758Z,9.6
2022-09-17T02:18:01.347Z,9.6
2022-09-17T02:19:02.624Z,9.7
2022-09-17T02:20:01.200Z,9.7
2022-09-17T02:21:01.773Z,9.7
2022-09-17T02:22:01.345Z,9.7
2022-09-17T02:23:00.920Z,9.7
2022-09-17T02:24:01.512Z,9.7
2022-09-17T02:25:01.085Z,9.7
2022-09-17T02:26:01.655Z,9.8
2022-09-17T02:27:01.237Z,9.8
2022-09-17T02:28:03.390Z,9.8
2022-09-17T02:29:01.190Z,9.8
2022-09-17T02:30:01.762Z,9.8
2022-09-17T02:31:01.420Z,9.8
2022-09-17T02:32:01.906Z,9.8
2022-09-17T02:33:01.477Z,9.8
2022-09-17T02:34:01.070Z,9.8
2022-09-17T02:35:01.750Z,9.8
2022-09-17T02:36:01.274Z,9.8
2022-09-17T02:37:01.848Z,9.8
2022-09-17T02:38:01.422Z,9.8
2022-09-17T02:39:01.013Z,9.8
2022-09-17T02:40:01.642Z,9.8
2022-09-17T02:41:01.240Z,9.9
2022-09-17T02:42:01.810Z,9.8
2022-09-17T02:43:01.382Z,9.8
2022-09-17T02:44:01.004Z,9.8
2022-09-17T02:45:01.547Z,9.8
2022-09-17T02:46:01.124Z,9.8
2022-09-17T02:47:01.695Z,9.8
2022-09-17T02:48:01.275Z,9.9
2022-09-17T02:49:01.848Z,9.8
2022-09-17T02:50:01.444Z,9.8
2022-09-17T02:51:01.137Z,9.9
2022-09-17T02:52:01.590Z,9.8
2022-09-17T02:53:01.166Z,9.8
2022-09-17T02:54:01.783Z,9.9
2022-09-17T02:55:01.376Z,9.9
2022-09-17T02:56:00.946Z,9.9
2022-09-17T02:57:01.525Z,9.9
2022-09-17T02:58:01.101Z,9.9
2022-09-17T02:59:01.676Z,9.9
2022-09-17T03:00:01.269Z,9.9
2022-09-17T03:01:01.862Z,10
2022-09-17T03:02:01.488Z,10
2022-09-17T03:03:01.027Z,10
2022-09-17T03:04:01.605Z,10
2022-09-17T03:05:01.181Z,10
2022-09-17T03:06:01.751Z,10
2022-09-17T03:07:01.463Z,10
2022-09-17T03:08:01.918Z,10
2022-09-17T03:09:01.495Z,10
2022-09-17T03:10:01.070Z,10
2022-09-17T03:11:01.642Z,9.9
2022-09-17T03:12:01.230Z,10
2022-09-17T03:13:01.799Z,10
2022-09-17T03:14:01.380Z,10.1
2022-09-17T03:15:00.969Z,10.1
2022-09-17T03:16:01.596Z,10
2022-09-17T03:17:01.195Z,10
2022-09-17T03:18:01.750Z,9.9
2022-09-17T03:19:01.322Z,10
2022-09-17T03:20:01.895Z,9.9
2022-09-17T03:21:01.468Z,9.9
2022-09-17T03:22:01.058Z,9.9
2022-09-17T03:23:01.734Z,9.9
2022-09-17T03:24:01.270Z,9.8
2022-09-17T03:25:01.843Z,9.8
2022-09-17T03:26:01.417Z,9.8
2022-09-17T03:27:01.005Z,9.8
2022-09-17T03:28:01.562Z,9.8
2022-09-17T03:29:01.135Z,9.8
2022-09-17T03:30:01.706Z,9.8
2022-09-17T03:31:01.338Z,9.8
2022-09-17T03:32:01.861Z,9.8
2022-09-17T03:33:01.433Z,9.8
2022-09-17T03:34:01.010Z,9.8
2022-09-17T03:35:01.583Z,9.8
2022-09-17T03:36:01.175Z,9.8
2022-09-17T03:37:01.733Z,9.8
2022-09-17T03:38:01.305Z,9.7
2022-09-17T03:39:01.998Z,9.7
2022-09-17T03:40:01.625Z,9.7
2022-09-17T03:41:01.133Z,9.7
2022-09-17T03:42:01.688Z,9.7
2022-09-17T03:43:01.262Z,9.8
2022-09-17T03:44:01.837Z,9.8
2022-09-17T03:45:01.414Z,9.8
2022-09-17T03:46:01.080Z,9.7
2022-09-17T03:47:01.562Z,9.7
2022-09-17T03:48:01.135Z,9.7
2022-09-17T03:49:01.708Z,9.8
2022-09-17T03:50:01.299Z,9.7
2022-09-17T03:51:01.881Z,9.7
2022-09-17T03:52:01.454Z,9.8
2022-09-17T03:53:01.028Z,9.7
2022-09-17T03:54:01.640Z,9.7
2022-09-17T03:55:01.355Z,9.7
2022-09-17T03:56:01.804Z,9.7
2022-09-17T03:57:01.375Z,9.7
2022-09-17T03:58:00.952Z,9.7
2022-09-17T03:59:01.525Z,9.7
2022-09-17T04:00:01.120Z,9.6
2022-09-17T04:01:01.677Z,9.6
2022-09-17T04:02:01.318Z,9.5
2022-09-17T04:03:01.905Z,9.5
2022-09-17T04:04:01.591Z,9.5
2022-09-17T04:05:01.077Z,9.5
2022-09-17T04:06:01.649Z,9.5
2022-09-17T04:07:01.224Z,9.5
2022-09-17T04:08:01.814Z,9.5
2022-09-17T04:09:01.387Z,9.5
2022-09-17T04:10:00.963Z,9.5
2022-09-17T04:11:01.660Z,9.5
2022-09-17T04:12:01.183Z,9.4
2022-09-17T04:13:01.776Z,9.4
2022-09-17T04:14:01.353Z,9.4
2022-09-17T04:15:00.925Z,9.4
2022-09-17T04:16:01.562Z,9.4
2022-09-17T04:17:01.153Z,9.4
2022-09-17T04:18:01.747Z,9.5
2022-09-17T04:19:01.331Z,9.4
2022-09-17T04:20:01.904Z,9.4
2022-09-17T04:21:01.479Z,9.3
2022-09-17T04:22:01.054Z,9.3
2022-09-17T04:23:01.648Z,9.3
2022-09-17T04:24:01.223Z,9.3
2022-09-17T04:25:01.806Z,9.3
2022-09-17T04:26:01.381Z,9.3
2022-09-17T04:27:01.106Z,9.3
2022-09-17T04:28:01.562Z,9.4
2022-09-17T04:29:01.135Z,9.4
2022-09-17T04:30:01.735Z,9.4
2022-09-17T04:31:01.363Z,9.4
2022-09-17T04:32:01.923Z,9.4
2022-09-17T04:33:01.534Z,9.3
2022-09-17T04:34:01.115Z,9.3
2022-09-17T04:35:01.684Z,9.3
2022-09-17T04:36:01.259Z,9.4
2022-09-17T04:37:01.835Z,9.5
2022-09-17T04:38:01.428Z,9.5
2022-09-17T04:39:00.993Z,9.5
2022-09-17T04:40:04.662Z,9.5
2022-09-17T04:41:01.104Z,9.6
2022-09-17T04:42:01.676Z,9.6
2022-09-17T04:43:01.389Z,9.6
2022-09-17T04:44:01.832Z,9.6
2022-09-17T04:45:01.410Z,9.6
2022-09-17T04:46:00.979Z,9.6
2022-09-17T04:47:01.554Z,9.6
2022-09-17T04:48:01.149Z,9.6
2022-09-17T04:49:01.730Z,9.6
2022-09-17T04:50:01.313Z,9.6
2022-09-17T04:51:01.890Z,9.6
2022-09-17T04:52:01.467Z,9.6
2022-09-17T04:53:01.043Z,9.6
2022-09-17T04:54:01.638Z,9.6
2022-09-17T04:55:01.253Z,9.7
2022-09-17T04:56:01.789Z,9.7
2022-09-17T04:57:01.365Z,9.6
2022-09-17T04:58:00.937Z,9.7
2022-09-17T04:59:01.648Z,9.7
2022-09-17T05:00:01.162Z,9.7
2022-09-17T05:01:01.800Z,9.7
2022-09-17T05:02:01.418Z,9.7
2022-09-17T05:03:00.961Z,9.7
2022-09-17T05:04:01.553Z,9.7
2022-09-17T05:05:01.126Z,9.7
2022-09-17T05:06:01.700Z,9.8
2022-09-17T05:07:01.275Z,9.8
2022-09-17T05:08:01.850Z,9.8
2022-09-17T05:09:01.443Z,9.8
2022-09-17T05:10:01.016Z,9.8
2022-09-17T05:11:01.593Z,9.8
2022-09-17T05:12:01.167Z,9.8
2022-09-17T05:13:01.741Z,9.8
2022-09-17T05:14:01.334Z,9.8
2022-09-17T05:15:02.035Z,9.8
2022-09-17T05:16:01.653Z,9.8
2022-09-17T05:17:01.121Z,9.8
2022-09-17T05:18:01.699Z,9.8
2022-09-17T05:19:01.271Z,9.8
2022-09-17T05:20:01.861Z,9.8
2022-09-17T05:21:01.436Z,9.8
2022-09-17T05:22:01.009Z,9.8
2022-09-17T05:23:01.582Z,9.8
2022-09-17T05:24:01.158Z,9.8
2022-09-17T05:25:01.746Z,9.8
2022-09-17T05:26:01.333Z,9.8
2022-09-17T05:27:01.910Z,9.8
2022-09-17T05:28:01.522Z,9.8
2022-09-17T05:29:01.171Z,9.8
2022-09-17T05:30:01.709Z,9.9
2022-09-17T05:31:01.445Z,9.9
2022-09-17T05:32:01.863Z,10
2022-09-17T05:33:01.438Z,9.9
2022-09-17T05:34:01.012Z,9.9
2022-09-17T05:35:05.368Z,9.9
2022-09-17T05:36:01.144Z,9.9
2022-09-17T05:37:01.724Z,10
2022-09-17T05:38:01.303Z,10
2022-09-17T05:39:01.872Z,10
2022-09-17T05:40:01.515Z,10.1
2022-09-17T05:41:01.119Z,10.1
2022-09-17T05:42:01.692Z,10.2
2022-09-17T05:43:01.268Z,10.1
2022-09-17T05:44:01.845Z,10.2
2022-09-17T05:45:01.434Z,10.3
2022-09-17T05:46:01.026Z,10.3
2022-09-17T05:47:01.741Z,10.4
2022-09-17T05:48:01.242Z,10.4
2022-09-17T05:49:01.814Z,10.4
2022-09-17T05:50:01.386Z,10.5
2022-09-17T05:51:00.975Z,10.5
2022-09-17T05:52:01.547Z,10.5
2022-09-17T05:53:01.135Z,10.5
2022-09-17T05:54:01.705Z,10.6
2022-09-17T05:55:01.318Z,10.6
2022-09-17T05:56:01.887Z,10.7
2022-09-17T05:57:01.470Z,10.6
2022-09-17T05:58:01.043Z,10.6
2022-09-17T05:59:01.620Z,10.6
2022-09-17T06:00:01.198Z,10.6
2022-09-17T06:01:01.785Z,10.7
2022-09-17T06:02:01.419Z,10.7
2022-09-17T06:03:01.107Z,10.7
2022-09-17T06:04:01.522Z,10.7
2022-09-17T06:05:01.115Z,10.7
2022-09-17T06:06:01.688Z,10.7
2022-09-17T06:07:01.287Z,10.6
2022-09-17T06:08:01.839Z,10.7
2022-09-17T06:09:01.415Z,10.7
2022-09-17T06:10:01.004Z,10.8
2022-09-17T06:11:02.539Z,10.8
2022-09-17T06:12:01.260Z,10.8
2022-09-17T06:13:01.816Z,10.8
2022-09-17T06:14:01.392Z,10.8
2022-09-17T06:15:00.987Z,10.9
2022-09-17T06:16:01.624Z,10.9
2022-09-17T06:17:01.202Z,10.9
2022-09-17T06:18:01.797Z,10.8
2022-09-17T06:19:01.493Z,10.8
2022-09-17T06:20:00.948Z,10.8
2022-09-17T06:21:01.517Z,10.8
2022-09-17T06:22:01.101Z,10.8
2022-09-17T06:23:01.697Z,10.8
2022-09-17T06:24:01.273Z,10.8
2022-09-17T06:25:01.863Z,10.8
2022-09-17T06:26:01.438Z,10.8
2022-09-17T06:27:01.012Z,10.8
2022-09-17T06:28:01.585Z,10.8
2022-09-17T06:29:01.241Z,10.8
2022-09-17T06:30:01.763Z,10.8
2022-09-17T06:31:01.366Z,10.8
2022-09-17T06:32:01.917Z,10.8
2022-09-17T06:33:01.491Z,10.8
2022-09-17T06:34:01.748Z,10.8
2022-09-17T06:35:01.614Z,10.8
2022-09-17T06:36:01.186Z,10.8
2022-09-17T06:37:01.758Z,10.8
2022-09-17T06:38:01.332Z,10.8
2022-09-17T06:39:01.906Z,10.8
2022-09-17T06:40:01.583Z,10.8
2022-09-17T06:41:01.137Z,10.8
2022-09-17T06:42:01.712Z,10.8
2022-09-17T06:43:01.288Z,10.7
2022-09-17T06:44:01.859Z,10.8
2022-09-17T06:45:05.635Z,10.8
2022-09-17T06:46:01.010Z,10.8
2022-09-17T06:47:01.637Z,10.8
2022-09-17T06:48:01.240Z,10.9
2022-09-17T06:49:01.816Z,10.8
2022-09-17T06:50:01.393Z,10.8
2022-09-17T06:51:01.107Z,10.9
2022-09-17T06:52:01.553Z,10.8
2022-09-17T06:53:01.124Z,10.9
2022-09-17T06:54:01.698Z,11
2022-09-17T06:55:01.273Z,11
2022-09-17T06:56:06.134Z,11.1
2022-09-17T06:57:01.475Z,11
2022-09-17T06:58:01.058Z,11
2022-09-17T06:59:01.631Z,11
2022-09-17T07:00:01.203Z,11
2022-09-17T07:01:01.913Z,11.1
2022-09-17T07:02:01.477Z,11.1
2022-09-17T07:03:01.003Z,11.1
2022-09-17T07:04:01.577Z,11.1
2022-09-17T07:05:01.152Z,11.2
2022-09-17T07:06:01.743Z,11.2
2022-09-17T07:07:01.458Z,11.1
2022-09-17T07:08:01.900Z,11.2
2022-09-17T07:09:01.480Z,11.2
2022-09-17T07:10:01.055Z,11.2
2022-09-17T07:11:01.648Z,11.3
2022-09-17T07:12:01.224Z,11.3
2022-09-17T07:13:01.799Z,11.3
2022-09-17T07:14:01.372Z,11.3
2022-09-17T07:15:00.947Z,11.3
2022-09-17T07:16:01.596Z,11.2
2022-09-17T07:17:01.185Z,11.2
2022-09-17T07:18:01.742Z,11.3
2022-09-17T07:19:01.317Z,11.2
2022-09-17T07:20:01.891Z,11.2
2022-09-17T07:21:01.466Z,11.2
2022-09-17T07:22:01.057Z,11.2
2022-09-17T07:23:01.749Z,11.2
2022-09-17T07:24:01.286Z,11.3
2022-09-17T07:25:01.861Z,11.3
2022-09-17T07:26:01.436Z,11.3
2022-09-17T07:27:01.032Z,11.3
2022-09-17T07:28:01.616Z,11.2
2022-09-17T07:29:01.279Z,11.3
2022-09-17T07:30:01.771Z,11.4
2022-09-17T07:31:01.367Z,11.2
2022-09-17T07:32:01.950Z,11.3
2022-09-17T07:33:01.523Z,11.3
2022-09-17T07:34:01.100Z,11.2
2022-09-17T07:35:01.668Z,11.2
2022-09-17T07:36:01.243Z,11
2022-09-17T07:37:01.835Z,11.1
2022-09-17T07:38:01.411Z,11
2022-09-17T07:39:01.113Z,11
2022-09-17T07:40:01.605Z,11
2022-09-17T07:41:01.199Z,11
2022-09-17T07:42:01.790Z,11.1
2022-09-17T07:43:01.361Z,11.3
2022-09-17T07:44:01.938Z,11.3
2022-09-17T07:45:02.321Z,11.5
2022-09-17T07:46:01.034Z,11.7
2022-09-17T07:47:01.656Z,11.8
2022-09-17T07:48:01.266Z,11.8
2022-09-17T07:49:01.840Z,11.9
2022-09-17T07:50:01.420Z,12
2022-09-17T07:51:00.995Z,12
2022-09-17T07:52:01.603Z,12
2022-09-17T07:53:01.180Z,12
2022-09-17T07:54:01.754Z,12
2022-09-17T07:55:01.455Z,11.9
2022-09-17T07:56:01.909Z,12
2022-09-17T07:57:01.541Z,12.1
2022-09-17T07:58:01.121Z,12.1
2022-09-17T07:59:01.786Z,12
2022-09-17T08:00:01.366Z,11.9
2022-09-17T08:01:01.959Z,11.8
2022-09-17T08:02:01.606Z,11.9
2022-09-17T08:03:01.268Z,11.9
2022-09-17T08:04:01.757Z,12
2022-09-17T08:05:01.331Z,12
2022-09-17T08:06:01.910Z,12
2022-09-17T08:07:01.505Z,12.1
2022-09-17T08:08:01.080Z,12.1
2022-09-17T08:09:01.653Z,12.1
2022-09-17T08:10:01.227Z,12.3
2022-09-17T08:11:01.925Z,12.3
2022-09-17T08:12:01.474Z,12.2
2022-09-17T08:13:01.048Z,12.2
2022-09-17T08:14:01.621Z,12.2
2022-09-17T08:15:01.215Z,12.2
2022-09-17T08:16:01.830Z,12.3
2022-09-17T08:17:01.419Z,12.4
2022-09-17T08:18:00.996Z,12.4
2022-09-17T08:19:01.572Z,12.4
2022-09-17T08:20:01.167Z,12.5
2022-09-17T08:21:01.730Z,12.5
2022-09-17T08:22:01.306Z,12.5
2022-09-17T08:23:01.883Z,12.5
2022-09-17T08:24:01.461Z,12.5
2022-09-17T08:25:01.049Z,12.6
2022-09-17T08:26:01.639Z,12.7
2022-09-17T08:27:01.337Z,12.5
2022-09-17T08:28:01.802Z,12.5
2022-09-17T08:29:01.431Z,12.4
2022-09-17T08:30:00.981Z,12.6
2022-09-17T08:31:01.605Z,12.7
2022-09-17T08:32:01.224Z,12.7
2022-09-17T08:33:01.788Z,12.7
2022-09-17T08:34:01.416Z,12.7
2022-09-17T08:35:00.941Z,12.7
2022-09-17T08:36:01.519Z,12.8
2022-09-17T08:37:01.193Z,12.8
2022-09-17T08:38:01.768Z,12.9
2022-09-17T08:39:01.344Z,12.8
2022-09-17T08:40:02.016Z,12.9
2022-09-17T08:41:01.628Z,12.8
2022-09-17T08:42:01.185Z,12.8
2022-09-17T08:43:01.870Z,12.9
2022-09-17T08:44:01.405Z,12.9
2022-09-17T08:45:01.098Z,13
2022-09-17T08:46:01.572Z,13.2
2022-09-17T08:47:01.171Z,13.3
2022-09-17T08:48:01.733Z,13.3
2022-09-17T08:49:01.349Z,13.3
2022-09-17T08:50:01.892Z,13.3
2022-09-17T08:51:04.341Z,13.2
2022-09-17T08:52:01.020Z,13.3
2022-09-17T08:53:01.597Z,13.5
2022-09-17T08:54:01.184Z,13.6
2022-09-17T08:55:01.776Z,13.5
2022-09-17T08:56:01.361Z,13.6
2022-09-17T08:57:01.002Z,13.5
2022-09-17T08:58:01.527Z,13.5
2022-09-17T08:59:01.243Z,13.6
2022-09-17T09:00:01.700Z,13.6
2022-09-17T09:01:01.293Z,13.5
2022-09-17T09:02:01.968Z,13.6
2022-09-17T09:03:01.560Z,13.7
2022-09-17T09:04:01.108Z,13.5
2022-09-17T09:05:01.675Z,13.6
2022-09-17T09:06:01.248Z,13.5
2022-09-17T09:07:01.823Z,13.4
2022-09-17T09:08:01.407Z,13.4
2022-09-17T09:09:00.995Z,13.6
2022-09-17T09:10:01.579Z,13.7
2022-09-17T09:11:01.152Z,13.7
2022-09-17T09:12:01.726Z,13.8
2022-09-17T09:13:01.299Z,13.8
2022-09-17T09:14:01.872Z,13.8
2022-09-17T09:15:01.606Z,13.7
2022-09-17T09:16:01.211Z,13.8
2022-09-17T09:17:01.703Z,13.7
2022-09-17T09:18:01.276Z,13.7
2022-09-17T09:19:01.848Z,13.6
2022-09-17T09:20:01.442Z,13.7
2022-09-17T09:21:01.015Z,13.8
2022-09-17T09:22:01.579Z,13.8
2022-09-17T09:23:01.152Z,13.8
2022-09-17T09:24:01.725Z,13.8
2022-09-17T09:25:01.319Z,13.9
2022-09-17T09:26:01.874Z,13.9
2022-09-17T09:27:01.447Z,14
2022-09-17T09:28:01.019Z,14.1
2022-09-17T09:29:01.593Z,14
2022-09-17T09:30:01.186Z,14.2
2022-09-17T09:31:01.908Z,14.1
2022-09-17T09:32:01.401Z,14.1
2022-09-17T09:33:00.980Z,14.1
2022-09-17T09:34:01.551Z,14.2
2022-09-17T09:35:01.142Z,14.1
2022-09-17T09:36:01.725Z,14.2
2022-09-17T09:37:01.316Z,14.3
2022-09-17T09:38:01.892Z,14.4
2022-09-17T09:39:01.470Z,14.5
2022-09-17T09:40:01.117Z,14.6
2022-09-17T09:41:01.624Z,14.5
2022-09-17T09:42:01.196Z,14.6
2022-09-17T09:43:01.770Z,14.4
2022-09-17T09:44:05.427Z,14.3
2022-09-17T09:45:05.086Z,14.4
2022-09-17T09:46:01.440Z,14.4
2022-09-17T09:47:01.187Z,14.5
2022-09-17T09:48:01.599Z,14.7
2022-09-17T09:49:01.174Z,14.6
2022-09-17T09:50:01.764Z,14.7
2022-09-17T09:51:06.453Z,14.7
2022-09-17T09:52:01.873Z,14.7
2022-09-17T09:53:01.477Z,14.5
2022-09-17T09:54:01.051Z,14.5
2022-09-17T09:55:01.640Z,14.5
2022-09-17T09:56:01.213Z,14.3
2022-09-17T09:57:01.807Z,14.3
2022-09-17T09:58:01.420Z,14.3
2022-09-17T09:59:01.105Z,14.3
2022-09-17T10:00:01.539Z,14.2
2022-09-17T10:01:01.117Z,14.3
2022-09-17T10:02:01.806Z,14.6
2022-09-17T10:03:01.514Z,14.7
2022-09-17T10:04:01.932Z,14.7
2022-09-17T10:05:01.505Z,14.8
2022-09-17T10:06:01.081Z,14.8
2022-09-17T10:07:01.670Z,14.8
2022-09-17T10:08:01.243Z,14.8
2022-09-17T10:09:01.815Z,14.8
2022-09-17T10:10:01.387Z,14.7
2022-09-17T10:11:00.961Z,14.4
2022-09-17T10:12:01.547Z,14.4
2022-09-17T10:13:01.138Z,14.5
2022-09-17T10:14:01.703Z,14.5
2022-09-17T10:15:01.275Z,14.5
2022-09-17T10:16:01.948Z,14.5
2022-09-17T10:17:01.506Z,14.5
2022-09-17T10:18:01.078Z,14.6
2022-09-17T10:19:01.770Z,14.8
2022-09-17T10:20:01.328Z,14.9
2022-09-17T10:21:01.893Z,14.7
2022-09-17T10:22:01.466Z,14.7
2022-09-17T10:23:01.037Z,14.7
2022-09-17T10:24:01.611Z,14.5
2022-09-17T10:25:01.205Z,14.4
2022-09-17T10:26:01.772Z,14.6
2022-09-17T10:27:01.344Z,14.7
2022-09-17T10:28:01.915Z,14.8
2022-09-17T10:29:01.487Z,14.8
2022-09-17T10:30:01.075Z,14.8
2022-09-17T10:31:05.225Z,14.8
2022-09-17T10:32:01.251Z,14.8
2022-09-17T10:33:01.859Z,14.9
2022-09-17T10:34:01.449Z,14.9
2022-09-17T10:35:01.286Z,15
2022-09-17T10:36:01.598Z,15
2022-09-17T10:37:01.171Z,15.2
2022-09-17T10:38:01.743Z,15.3
2022-09-17T10:39:01.337Z,15.3
2022-09-17T10:40:01.966Z,15.4
2022-09-17T10:41:01.555Z,15.4
2022-09-17T10:42:01.126Z,15.5
2022-09-17T10:43:01.701Z,15.4
2022-09-17T10:44:01.419Z,15.4
2022-09-17T10:45:01.873Z,15.5
2022-09-17T10:46:01.446Z,15.4
2022-09-17T10:47:01.119Z,15.4
2022-09-17T10:48:01.606Z,15.5
2022-09-17T10:49:01.179Z,15.5
2022-09-17T10:50:01.774Z,15.6
2022-09-17T10:51:01.468Z,15.3
2022-09-17T10:52:01.933Z,14.9
2022-09-17T10:53:01.506Z,14.8
2022-09-17T10:54:01.079Z,14.9
2022-09-17T10:55:01.672Z,14.9
2022-09-17T10:56:01.244Z,14.9
2022-09-17T10:57:01.817Z,14.9
2022-09-17T10:58:01.389Z,14.9
2022-09-17T10:59:01.065Z,14.7
2022-09-17T11:00:01.564Z,14.8
2022-09-17T11:01:01.148Z,14.7
2022-09-17T11:02:01.820Z,14.7
2022-09-17T11:03:01.432Z,14.6
2022-09-17T11:04:01.955Z,14.6
2022-09-17T11:05:01.545Z,14.6
2022-09-17T11:06:01.133Z,14.6
2022-09-17T11:07:01.821Z,14.4
2022-09-17T11:08:01.361Z,14.5
2022-09-17T11:09:01.934Z,14.5
2022-09-17T11:10:01.529Z,14.7
2022-09-17T11:11:01.101Z,14.7
2022-09-17T11:12:01.673Z,14.9
2022-09-17T11:13:01.245Z,14.9
2022-09-17T11:14:01.820Z,14.9
2022-09-17T11:15:01.423Z,15.2
2022-09-17T11:16:01.015Z,14.9
2022-09-17T11:17:01.556Z,14.9
2022-09-17T11:18:01.130Z,15
2022-09-17T11:19:01.704Z,14.8
2022-09-17T11:20:01.306Z,14.6
2022-09-17T11:21:01.875Z,14.6
2022-09-17T11:22:01.450Z,14.2
2022-09-17T11:23:01.142Z,13.8
2022-09-17T11:24:01.608Z,13.8
2022-09-17T11:25:01.200Z,13.8
2022-09-17T11:26:01.763Z,13.8
2022-09-17T11:27:01.343Z,13.8
2022-09-17T11:28:01.917Z,13.8
2022-09-17T11:29:01.534Z,13.9
2022-09-17T11:30:01.162Z,14.1
2022-09-17T11:31:01.838Z,14.3
2022-09-17T11:32:01.433Z,14.3
2022-09-17T11:33:00.976Z,14.2
2022-09-17T11:34:01.569Z,14.1
2022-09-17T11:35:01.144Z,14
2022-09-17T11:36:01.717Z,13.8
2022-09-17T11:37:01.288Z,14
2022-09-17T11:38:01.860Z,14.1
2022-09-17T11:39:01.576Z,14.2
2022-09-17T11:40:01.112Z,14.3
2022-09-17T11:41:01.604Z,14.3
2022-09-17T11:42:01.176Z,14.3
2022-09-17T11:43:01.747Z,14.6
2022-09-17T11:44:01.405Z,14.8
2022-09-17T11:45:01.905Z,15.2
2022-09-17T11:46:01.477Z,15.7
2022-09-17T11:47:01.109Z,15.5
2022-09-17T11:48:01.637Z,15.2
2022-09-17T11:49:01.228Z,15.4
2022-09-17T11:50:01.796Z,14.9
2022-09-17T11:51:01.373Z,14.9
2022-09-17T11:52:01.963Z,15
2022-09-17T11:53:01.542Z,14.9
2022-09-17T11:54:01.117Z,14.9
2022-09-17T11:55:01.814Z,15.3
2022-09-17T11:56:01.352Z,15.3
2022-09-17T11:57:03.603Z,15.5
2022-09-17T11:58:01.486Z,15.4
2022-09-17T11:59:01.268Z,15.6
2022-09-17T12:00:01.650Z,15.3
2022-09-17T12:01:01.242Z,15.5
2022-09-17T12:02:01.860Z,15.4
2022-09-17T12:03:01.506Z,15
2022-09-17T12:04:01.043Z,14.8
2022-09-17T12:05:01.619Z,14.9
2022-09-17T12:06:01.193Z,14.7
2022-09-17T12:07:01.783Z,14.3
2022-09-17T12:08:01.375Z,14.1
2022-09-17T12:09:01.945Z,13.8
2022-09-17T12:10:01.517Z,13.6
2022-09-17T12:11:01.225Z,13.3
2022-09-17T12:12:01.704Z,13.2
2022-09-17T12:13:01.279Z,13.2
2022-09-17T12:14:01.919Z,13.1
2022-09-17T12:15:01.513Z,12.2
2022-09-17T12:16:01.123Z,12
2022-09-17T12:17:01.689Z,12
2022-09-17T12:18:27.550Z,12.1
2022-09-17T12:19:01.820Z,12.2
2022-09-17T12:20:01.407Z,12.3
2022-09-17T12:21:00.985Z,12.6
2022-09-17T12:22:01.559Z,12.7
2022-09-17T12:23:01.152Z,12
2022-09-17T12:24:01.739Z,11.8
2022-09-17T12:25:01.316Z,11.9
2022-09-17T12:26:01.892Z,12.2
2022-09-17T12:27:01.594Z,12.2
2022-09-17T12:28:01.152Z,12.2
2022-09-17T12:29:01.742Z,12.3
2022-09-17T12:30:01.344Z,12.3
2022-09-17T12:31:02.042Z,12.3
2022-09-17T12:32:01.626Z,12.3
2022-09-17T12:33:01.181Z,12.4
2022-09-17T12:34:01.747Z,12.4
2022-09-17T12:35:01.339Z,12.3
2022-09-17T12:36:04.806Z,12.2
2022-09-17T12:37:01.442Z,12.1
2022-09-17T12:38:01.018Z,12.1
2022-09-17T12:39:03.206Z,12.1
2022-09-17T12:40:01.966Z,12
2022-09-17T12:41:01.574Z,12
2022-09-17T12:42:01.149Z,12
2022-09-17T12:43:01.842Z,12.1
2022-09-17T12:44:01.400Z,12.1
2022-09-17T12:45:01.985Z,12.2
2022-09-17T12:46:01.578Z,12.3
2022-09-17T12:47:01.252Z,12.2
2022-09-17T12:48:01.738Z,12.3
2022-09-17T12:49:01.310Z,12.4
2022-09-17T12:50:01.887Z,12.7
2022-09-17T12:51:01.478Z,12.9
2022-09-17T12:52:01.051Z,13
2022-09-17T12:53:01.622Z,13.3
2022-09-17T12:54:01.196Z,13.6
2022-09-17T12:55:01.768Z,13.9
2022-09-17T12:56:01.364Z,14.1
2022-09-17T12:57:01.924Z,14.3
2022-09-17T12:58:01.501Z,14.6
2022-09-17T12:59:01.326Z,14.8
2022-09-17T13:00:05.380Z,15
2022-09-17T13:01:01.393Z,14.8
2022-09-17T13:02:01.959Z,14.8
2022-09-17T13:03:01.575Z,14.6
2022-09-17T13:04:01.168Z,14.4
2022-09-17T13:05:02.356Z,14.3
2022-09-17T13:06:01.031Z,14
2022-09-17T13:07:01.623Z,12.7
2022-09-17T13:08:01.200Z,11.2
2022-09-17T13:09:01.776Z,10.4
2022-09-17T13:10:01.348Z,10.3
2022-09-17T13:11:01.951Z,10.3
2022-09-17T13:12:01.527Z,10.3
2022-09-17T13:13:01.100Z,10.4
2022-09-17T13:14:01.673Z,10.5
2022-09-17T13:15:01.366Z,10.7
2022-09-17T13:16:01.897Z,10.7
2022-09-17T13:17:01.492Z,10.9
2022-09-17T13:18:20.549Z,11.1
2022-09-17T13:19:17.463Z,11.1
2022-09-17T13:20:01.154Z,11.3
2022-09-17T13:21:01.729Z,11.4
2022-09-17T13:22:01.322Z,11.7
2022-09-17T13:23:01.908Z,11.5
2022-09-17T13:24:01.541Z,11.7
2022-09-17T13:25:01.116Z,11.6
2022-09-17T13:26:01.699Z,11.9
2022-09-17T13:27:01.282Z,11.9
2022-09-17T13:28:01.878Z,12
2022-09-17T13:29:01.851Z,12.1
2022-09-17T13:30:01.548Z,11.8
2022-09-17T13:31:01.292Z,11.8
2022-09-17T13:32:01.883Z,12